sensor_id;sensor_type;location;lat;lon;timestamp;P1;durP1;ratioP1;P2;durP2;ratioP2
22480;SDS011;11407;56.964;-2.212;2022-11-14T00:00:05;19.97;;;11.47;;
22480;SDS011;11407;56.964;-2.212;2022-11-14T00:02:32;18.90;;;11.13;;
22480;SDS011;11407;56.964;-2.212;2022-11-14T00:04:58;19.50;;;11.00;;
22480;SDS011;11407;56.964;-2.212;2022-11-14T00:07:23;22.33;;;11.73;;
22480;SDS011;11407;56.964;-2.212;2022-11-14T00:09:49;20.47;;;11.87;;
22480;SDS011;11407;56.964;-2.212;2022-11-14T00:12:14;16.13;;;10.67;;
22480;SDS011;11407;56.964;-2.212;2022-11-14T00:14:39;17.10;;;10.47;;
22480;SDS011;11407;56.964;-2.212;2022-11-14T00:17:05;18.77;;;12.23;;
22480;SDS011;11407;56.964;-2.212;2022-11-14T00:19:31;18.07;;;11.10;;
22480;SDS011;11407;56.964;-2.212;2022-11-14T00:21:56;16.43;;;10.43;;
22480;SDS011;11407;56.964;-2.212;2022-11-14T00:24:22;19.57;;;11.90;;
22480;SDS011;11407;56.964;-2.212;2022-11-14T00:26:48;17.63;;;11.13;;
22480;SDS011;11407;56.964;-2.212;2022-11-14T00:29:14;19.23;;;11.27;;
22480;SDS011;11407;56.964;-2.212;2022-11-14T00:31:40;19.83;;;12.07;;
22480;SDS011;11407;56.964;-2.212;2022-11-14T00:34:06;21.23;;;12.47;;
22480;SDS011;11407;56.964;-2.212;2022-11-14T00:36:32;19.53;;;12.53;;
22480;SDS011;11407;56.964;-2.212;2022-11-14T00:38:57;22.83;;;13.00;;
22480;SDS011;11407;56.964;-2.212;2022-11-14T00:41:23;18.20;;;11.37;;
22480;SDS011;11407;56.964;-2.212;2022-11-14T00:43:48;21.93;;;12.80;;
22480;SDS011;11407;56.964;-2.212;2022-11-14T00:46:14;19.83;;;12.40;;
22480;SDS011;11407;56.964;-2.212;2022-11-14T00:48:40;19.23;;;12.90;;
22480;SDS011;11407;56.964;-2.212;2022-11-14T00:51:05;19.67;;;13.50;;
22480;SDS011;11407;56.964;-2.212;2022-11-14T00:53:31;21.67;;;13.53;;
22480;SDS011;11407;56.964;-2.212;2022-11-14T00:55:57;21.63;;;13.70;;
22480;SDS011;11407;56.964;-2.212;2022-11-14T00:58:22;23.93;;;13.27;;
22480;SDS011;11407;56.964;-2.212;2022-11-14T01:00:47;22.10;;;13.70;;
22480;SDS011;11407;56.964;-2.212;2022-11-14T01:03:13;23.77;;;13.07;;
22480;SDS011;11407;56.964;-2.212;2022-11-14T01:05:40;22.17;;;13.97;;
22480;SDS011;11407;56.964;-2.212;2022-11-14T01:08:09;18.87;;;13.00;;
22480;SDS011;11407;56.964;-2.212;2022-11-14T01:10:42;21.80;;;13.47;;
22480;SDS011;11407;56.964;-2.212;2022-11-14T01:13:09;22.07;;;14.00;;
22480;SDS011;11407;56.964;-2.212;2022-11-14T01:15:43;24.23;;;15.07;;
22480;SDS011;11407;56.964;-2.212;2022-11-14T01:18:10;23.53;;;15.57;;
22480;SDS011;11407;56.964;-2.212;2022-11-14T01:20:38;22.93;;;15.27;;
22480;SDS011;11407;56.964;-2.212;2022-11-14T01:23:04;26.63;;;16.90;;
22480;SDS011;11407;56.964;-2.212;2022-11-14T01:25:32;27.03;;;17.53;;
22480;SDS011;11407;56.964;-2.212;2022-11-14T01:27:58;26.33;;;17.03;;
22480;SDS011;11407;56.964;-2.212;2022-11-14T01:30:23;26.57;;;17.57;;
22480;SDS011;11407;56.964;-2.212;2022-11-14T01:32:48;26.90;;;17.47;;
22480;SDS011;11407;56.964;-2.212;2022-11-14T01:35:14;26.00;;;17.27;;
22480;SDS011;11407;56.964;-2.212;2022-11-14T01:37:39;27.43;;;17.20;;
22480;SDS011;11407;56.964;-2.212;2022-11-14T01:40:05;26.53;;;17.00;;
22480;SDS011;11407;56.964;-2.212;2022-11-14T01:42:31;25.97;;;17.27;;
22480;SDS011;11407;56.964;-2.212;2022-11-14T01:44:56;26.43;;;17.80;;
22480;SDS011;11407;56.964;-2.212;2022-11-14T01:47:23;26.33;;;17.37;;
22480;SDS011;11407;56.964;-2.212;2022-11-14T01:49:53;25.57;;;16.63;;
22480;SDS011;11407;56.964;-2.212;2022-11-14T01:52:24;27.40;;;15.97;;
22480;SDS011;11407;56.964;-2.212;2022-11-14T01:54:51;24.70;;;15.43;;
22480;SDS011;11407;56.964;-2.212;2022-11-14T01:57:44;26.80;;;15.10;;
22480;SDS011;11407;56.964;-2.212;2022-11-14T02:00:10;25.80;;;15.53;;
22480;SDS011;11407;56.964;-2.212;2022-11-14T02:02:36;28.40;;;16.07;;
22480;SDS011;11407;56.964;-2.212;2022-11-14T02:05:05;26.77;;;17.37;;
22480;SDS011;11407;56.964;-2.212;2022-11-14T02:07:33;24.20;;;16.03;;
22480;SDS011;11407;56.964;-2.212;2022-11-14T02:10:03;25.97;;;16.43;;
22480;SDS011;11407;56.964;-2.212;2022-11-14T02:12:31;27.83;;;15.93;;
22480;SDS011;11407;56.964;-2.212;2022-11-14T02:14:57;28.37;;;16.27;;
22480;SDS011;11407;56.964;-2.212;2022-11-14T02:17:24;26.27;;;15.13;;
22480;SDS011;11407;56.964;-2.212;2022-11-14T02:19:54;23.57;;;15.20;;
22480;SDS011;11407;56.964;-2.212;2022-11-14T02:22:36;27.67;;;16.30;;
22480;SDS011;11407;56.964;-2.212;2022-11-14T02:25:05;23.63;;;15.53;;
22480;SDS011;11407;56.964;-2.212;2022-11-14T02:27:32;26.47;;;16.97;;
22480;SDS011;11407;56.964;-2.212;2022-11-14T02:30:03;28.90;;;17.20;;
22480;SDS011;11407;56.964;-2.212;2022-11-14T02:32:33;28.37;;;17.23;;
22480;SDS011;11407;56.964;-2.212;2022-11-14T02:34:59;29.83;;;17.23;;
22480;SDS011;11407;56.964;-2.212;2022-11-14T02:37:24;30.17;;;16.50;;
22480;SDS011;11407;56.964;-2.212;2022-11-14T02:39:49;30.33;;;16.90;;
22480;SDS011;11407;56.964;-2.212;2022-11-14T02:42:15;30.10;;;16.40;;
22480;SDS011;11407;56.964;-2.212;2022-11-14T02:44:40;28.80;;;16.73;;
22480;SDS011;11407;56.964;-2.212;2022-11-14T02:47:06;29.90;;;17.80;;
22480;SDS011;11407;56.964;-2.212;2022-11-14T02:49:31;27.53;;;15.87;;
22480;SDS011;11407;56.964;-2.212;2022-11-14T02:51:57;23.43;;;11.83;;
22480;SDS011;11407;56.964;-2.212;2022-11-14T02:54:22;11.07;;;7.53;;
22480;SDS011;11407;56.964;-2.212;2022-11-14T02:56:47;14.67;;;5.70;;
22480;SDS011;11407;56.964;-2.212;2022-11-14T02:59:13;13.13;;;5.30;;
22480;SDS011;11407;56.964;-2.212;2022-11-14T03:01:38;11.17;;;5.13;;
22480;SDS011;11407;56.964;-2.212;2022-11-14T03:04:04;9.27;;;4.27;;
22480;SDS011;11407;56.964;-2.212;2022-11-14T03:06:29;12.17;;;4.30;;
22480;SDS011;11407;56.964;-2.212;2022-11-14T03:08:55;11.57;;;4.17;;
22480;SDS011;11407;56.964;-2.212;2022-11-14T03:11:20;11.13;;;4.03;;
22480;SDS011;11407;56.964;-2.212;2022-11-14T03:13:46;11.90;;;3.87;;
22480;SDS011;11407;56.964;-2.212;2022-11-14T03:16:11;11.70;;;4.03;;
22480;SDS011;11407;56.964;-2.212;2022-11-14T03:18:38;16.93;;;4.43;;
22480;SDS011;11407;56.964;-2.212;2022-11-14T03:21:04;11.80;;;3.63;;
22480;SDS011;11407;56.964;-2.212;2022-11-14T03:23:34;7.97;;;3.50;;
22480;SDS011;11407;56.964;-2.212;2022-11-14T03:26:00;11.97;;;3.50;;
22480;SDS011;11407;56.964;-2.212;2022-11-14T03:28:27;12.60;;;3.80;;
22480;SDS011;11407;56.964;-2.212;2022-11-14T03:30:53;17.43;;;4.30;;
22480;SDS011;11407;56.964;-2.212;2022-11-14T03:33:19;11.00;;;4.00;;
22480;SDS011;11407;56.964;-2.212;2022-11-14T03:35:44;12.13;;;3.53;;
22480;SDS011;11407;56.964;-2.212;2022-11-14T03:38:10;11.00;;;4.37;;
22480;SDS011;11407;56.964;-2.212;2022-11-14T03:40:38;10.53;;;4.03;;
22480;SDS011;11407;56.964;-2.212;2022-11-14T03:43:04;7.33;;;3.70;;
22480;SDS011;11407;56.964;-2.212;2022-11-14T03:45:30;8.00;;;3.70;;
22480;SDS011;11407;56.964;-2.212;2022-11-14T03:47:55;10.73;;;4.13;;
22480;SDS011;11407;56.964;-2.212;2022-11-14T03:50:20;10.70;;;4.17;;
22480;SDS011;11407;56.964;-2.212;2022-11-14T03:52:49;14.13;;;4.33;;
22480;SDS011;11407;56.964;-2.212;2022-11-14T03:55:15;10.37;;;4.07;;
22480;SDS011;11407;56.964;-2.212;2022-11-14T03:57:40;8.70;;;3.57;;
22480;SDS011;11407;56.964;-2.212;2022-11-14T04:00:06;12.93;;;3.70;;
22480;SDS011;11407;56.964;-2.212;2022-11-14T04:02:32;11.43;;;4.07;;
22480;SDS011;11407;56.964;-2.212;2022-11-14T04:04:58;11.00;;;4.20;;
22480;SDS011;11407;56.964;-2.212;2022-11-14T04:07:23;9.07;;;3.53;;
22480;SDS011;11407;56.964;-2.212;2022-11-14T04:09:48;16.20;;;4.40;;
22480;SDS011;11407;56.964;-2.212;2022-11-14T04:12:16;9.87;;;4.53;;
22480;SDS011;11407;56.964;-2.212;2022-11-14T04:14:41;9.83;;;3.87;;
22480;SDS011;11407;56.964;-2.212;2022-11-14T04:17:07;12.27;;;4.40;;
22480;SDS011;11407;56.964;-2.212;2022-11-14T04:19:32;13.03;;;4.50;;
22480;SDS011;11407;56.964;-2.212;2022-11-14T04:21:58;14.30;;;4.17;;
22480;SDS011;11407;56.964;-2.212;2022-11-14T04:24:23;10.17;;;3.80;;
22480;SDS011;11407;56.964;-2.212;2022-11-14T04:26:48;12.17;;;4.57;;
22480;SDS011;11407;56.964;-2.212;2022-11-14T04:29:14;10.13;;;4.03;;
22480;SDS011;11407;56.964;-2.212;2022-11-14T04:31:39;10.60;;;4.47;;
22480;SDS011;11407;56.964;-2.212;2022-11-14T04:34:04;8.03;;;3.90;;
22480;SDS011;11407;56.964;-2.212;2022-11-14T04:36:30;13.10;;;4.93;;
22480;SDS011;11407;56.964;-2.212;2022-11-14T04:38:55;12.37;;;4.93;;
22480;SDS011;11407;56.964;-2.212;2022-11-14T04:41:21;10.73;;;4.40;;
22480;SDS011;11407;56.964;-2.212;2022-11-14T04:43:46;13.67;;;4.67;;
22480;SDS011;11407;56.964;-2.212;2022-11-14T04:46:11;11.50;;;4.80;;
22480;SDS011;11407;56.964;-2.212;2022-11-14T04:48:37;14.93;;;4.77;;
22480;SDS011;11407;56.964;-2.212;2022-11-14T04:51:02;13.87;;;4.83;;
22480;SDS011;11407;56.964;-2.212;2022-11-14T04:53:28;10.50;;;4.80;;
22480;SDS011;11407;56.964;-2.212;2022-11-14T04:55:53;11.70;;;4.10;;
22480;SDS011;11407;56.964;-2.212;2022-11-14T04:58:19;11.90;;;4.63;;
22480;SDS011;11407;56.964;-2.212;2022-11-14T05:00:44;12.73;;;4.53;;
22480;SDS011;11407;56.964;-2.212;2022-11-14T05:03:09;11.83;;;4.20;;
22480;SDS011;11407;56.964;-2.212;2022-11-14T05:05:35;11.67;;;4.37;;
22480;SDS011;11407;56.964;-2.212;2022-11-14T05:08:00;10.17;;;4.20;;
22480;SDS011;11407;56.964;-2.212;2022-11-14T05:10:26;14.30;;;4.60;;
22480;SDS011;11407;56.964;-2.212;2022-11-14T05:12:52;11.33;;;4.40;;
22480;SDS011;11407;56.964;-2.212;2022-11-14T05:15:18;14.17;;;4.10;;
22480;SDS011;11407;56.964;-2.212;2022-11-14T05:17:44;10.43;;;4.10;;
22480;SDS011;11407;56.964;-2.212;2022-11-14T05:20:09;17.27;;;5.33;;
22480;SDS011;11407;56.964;-2.212;2022-11-14T05:22:35;10.27;;;4.40;;
22480;SDS011;11407;56.964;-2.212;2022-11-14T05:25:01;13.77;;;4.37;;
22480;SDS011;11407;56.964;-2.212;2022-11-14T05:27:27;15.37;;;4.93;;
22480;SDS011;11407;56.964;-2.212;2022-11-14T05:29:53;10.07;;;4.57;;
22480;SDS011;11407;56.964;-2.212;2022-11-14T05:32:19;8.13;;;4.23;;
22480;SDS011;11407;56.964;-2.212;2022-11-14T05:34:45;10.80;;;4.40;;
22480;SDS011;11407;56.964;-2.212;2022-11-14T05:37:11;13.43;;;4.80;;
22480;SDS011;11407;56.964;-2.212;2022-11-14T05:39:36;9.97;;;4.30;;
22480;SDS011;11407;56.964;-2.212;2022-11-14T05:42:02;12.23;;;4.50;;
22480;SDS011;11407;56.964;-2.212;2022-11-14T05:44:27;13.03;;;4.30;;
22480;SDS011;11407;56.964;-2.212;2022-11-14T05:46:53;11.90;;;4.30;;
22480;SDS011;11407;56.964;-2.212;2022-11-14T05:49:18;12.30;;;4.53;;
22480;SDS011;11407;56.964;-2.212;2022-11-14T05:51:43;17.33;;;5.30;;
22480;SDS011;11407;56.964;-2.212;2022-11-14T05:54:09;12.03;;;4.60;;
22480;SDS011;11407;56.964;-2.212;2022-11-14T05:56:34;11.90;;;4.60;;
22480;SDS011;11407;56.964;-2.212;2022-11-14T05:59:00;14.37;;;4.93;;
22480;SDS011;11407;56.964;-2.212;2022-11-14T06:01:25;11.17;;;4.20;;
22480;SDS011;11407;56.964;-2.212;2022-11-14T06:03:51;13.60;;;4.30;;
22480;SDS011;11407;56.964;-2.212;2022-11-14T06:06:18;10.60;;;4.43;;
22480;SDS011;11407;56.964;-2.212;2022-11-14T06:08:45;11.00;;;4.33;;
22480;SDS011;11407;56.964;-2.212;2022-11-14T06:11:14;13.80;;;4.10;;
22480;SDS011;11407;56.964;-2.212;2022-11-14T06:13:41;15.53;;;4.60;;
22480;SDS011;11407;56.964;-2.212;2022-11-14T06:16:11;13.30;;;4.23;;
22480;SDS011;11407;56.964;-2.212;2022-11-14T06:18:38;12.50;;;4.80;;
22480;SDS011;11407;56.964;-2.212;2022-11-14T06:21:05;9.40;;;3.90;;
22480;SDS011;11407;56.964;-2.212;2022-11-14T06:23:42;7.60;;;3.80;;
22480;SDS011;11407;56.964;-2.212;2022-11-14T06:28:47;14.00;;;4.60;;
22480;SDS011;11407;56.964;-2.212;2022-11-14T06:31:14;11.60;;;4.47;;
22480;SDS011;11407;56.964;-2.212;2022-11-14T06:33:40;13.60;;;4.40;;
22480;SDS011;11407;56.964;-2.212;2022-11-14T06:36:05;13.37;;;4.60;;
22480;SDS011;11407;56.964;-2.212;2022-11-14T06:38:33;9.27;;;4.10;;
22480;SDS011;11407;56.964;-2.212;2022-11-14T06:41:06;14.00;;;4.80;;
22480;SDS011;11407;56.964;-2.212;2022-11-14T06:43:37;11.37;;;3.93;;
22480;SDS011;11407;56.964;-2.212;2022-11-14T06:46:08;12.70;;;4.60;;
22480;SDS011;11407;56.964;-2.212;2022-11-14T06:48:35;15.00;;;4.67;;
22480;SDS011;11407;56.964;-2.212;2022-11-14T06:51:02;11.93;;;4.63;;
22480;SDS011;11407;56.964;-2.212;2022-11-14T06:53:29;11.60;;;5.27;;
22480;SDS011;11407;56.964;-2.212;2022-11-14T06:55:57;14.57;;;4.30;;
22480;SDS011;11407;56.964;-2.212;2022-11-14T06:58:27;15.60;;;5.27;;
22480;SDS011;11407;56.964;-2.212;2022-11-14T07:00:54;16.10;;;4.97;;
22480;SDS011;11407;56.964;-2.212;2022-11-14T07:03:19;12.93;;;4.57;;
22480;SDS011;11407;56.964;-2.212;2022-11-14T07:05:46;9.40;;;4.67;;
22480;SDS011;11407;56.964;-2.212;2022-11-14T07:08:11;14.37;;;4.87;;
22480;SDS011;11407;56.964;-2.212;2022-11-14T07:10:37;12.67;;;5.07;;
22480;SDS011;11407;56.964;-2.212;2022-11-14T07:13:02;14.63;;;5.07;;
22480;SDS011;11407;56.964;-2.212;2022-11-14T07:15:27;11.93;;;4.70;;
22480;SDS011;11407;56.964;-2.212;2022-11-14T07:17:53;16.03;;;5.63;;
22480;SDS011;11407;56.964;-2.212;2022-11-14T07:20:18;17.27;;;5.57;;
22480;SDS011;11407;56.964;-2.212;2022-11-14T07:22:44;13.40;;;5.23;;
22480;SDS011;11407;56.964;-2.212;2022-11-14T07:25:10;16.63;;;5.30;;
22480;SDS011;11407;56.964;-2.212;2022-11-14T07:27:36;14.30;;;5.40;;
22480;SDS011;11407;56.964;-2.212;2022-11-14T07:30:01;13.17;;;5.83;;
22480;SDS011;11407;56.964;-2.212;2022-11-14T07:32:26;18.57;;;6.50;;
22480;SDS011;11407;56.964;-2.212;2022-11-14T07:34:52;11.60;;;5.77;;
22480;SDS011;11407;56.964;-2.212;2022-11-14T07:37:17;19.93;;;7.00;;
22480;SDS011;11407;56.964;-2.212;2022-11-14T07:39:43;15.63;;;6.00;;
22480;SDS011;11407;56.964;-2.212;2022-11-14T07:42:10;16.10;;;6.57;;
22480;SDS011;11407;56.964;-2.212;2022-11-14T07:44:35;20.63;;;6.80;;
22480;SDS011;11407;56.964;-2.212;2022-11-14T07:47:00;17.17;;;6.60;;
22480;SDS011;11407;56.964;-2.212;2022-11-14T07:49:26;17.63;;;7.80;;
22480;SDS011;11407;56.964;-2.212;2022-11-14T07:51:51;18.63;;;8.40;;
22480;SDS011;11407;56.964;-2.212;2022-11-14T07:54:17;20.17;;;7.30;;
22480;SDS011;11407;56.964;-2.212;2022-11-14T07:56:42;13.10;;;6.97;;
22480;SDS011;11407;56.964;-2.212;2022-11-14T07:59:08;18.77;;;6.63;;
22480;SDS011;11407;56.964;-2.212;2022-11-14T08:01:33;19.57;;;7.03;;
22480;SDS011;11407;56.964;-2.212;2022-11-14T08:03:58;11.33;;;6.30;;
22480;SDS011;11407;56.964;-2.212;2022-11-14T08:06:24;16.60;;;7.27;;
22480;SDS011;11407;56.964;-2.212;2022-11-14T08:08:50;21.67;;;7.17;;
22480;SDS011;11407;56.964;-2.212;2022-11-14T08:11:15;14.83;;;6.93;;
22480;SDS011;11407;56.964;-2.212;2022-11-14T08:14:01;17.20;;;7.37;;
22480;SDS011;11407;56.964;-2.212;2022-11-14T08:16:26;13.47;;;6.43;;
22480;SDS011;11407;56.964;-2.212;2022-11-14T08:18:52;15.97;;;7.60;;
22480;SDS011;11407;56.964;-2.212;2022-11-14T08:21:17;16.30;;;6.73;;
22480;SDS011;11407;56.964;-2.212;2022-11-14T08:23:42;17.93;;;7.60;;
22480;SDS011;11407;56.964;-2.212;2022-11-14T08:26:09;14.07;;;7.20;;
22480;SDS011;11407;56.964;-2.212;2022-11-14T08:28:34;13.50;;;7.30;;
22480;SDS011;11407;56.964;-2.212;2022-11-14T08:31:00;19.87;;;8.37;;
22480;SDS011;11407;56.964;-2.212;2022-11-14T08:33:27;17.47;;;7.50;;
22480;SDS011;11407;56.964;-2.212;2022-11-14T08:35:52;12.20;;;7.10;;
22480;SDS011;11407;56.964;-2.212;2022-11-14T08:38:17;16.63;;;7.37;;
22480;SDS011;11407;56.964;-2.212;2022-11-14T08:40:43;16.27;;;7.80;;
22480;SDS011;11407;56.964;-2.212;2022-11-14T08:43:08;16.30;;;8.13;;
22480;SDS011;11407;56.964;-2.212;2022-11-14T08:45:35;14.30;;;6.70;;
22480;SDS011;11407;56.964;-2.212;2022-11-14T08:48:01;14.90;;;6.97;;
22480;SDS011;11407;56.964;-2.212;2022-11-14T08:50:26;17.57;;;7.87;;
22480;SDS011;11407;56.964;-2.212;2022-11-14T08:52:52;19.43;;;7.93;;
22480;SDS011;11407;56.964;-2.212;2022-11-14T08:55:18;19.30;;;8.40;;
22480;SDS011;11407;56.964;-2.212;2022-11-14T08:57:44;15.23;;;8.73;;
22480;SDS011;11407;56.964;-2.212;2022-11-14T09:00:10;16.33;;;7.97;;
22480;SDS011;11407;56.964;-2.212;2022-11-14T09:02:36;14.30;;;8.37;;
22480;SDS011;11407;56.964;-2.212;2022-11-14T09:05:01;13.20;;;7.57;;
22480;SDS011;11407;56.964;-2.212;2022-11-14T09:07:27;16.43;;;8.93;;
22480;SDS011;11407;56.964;-2.212;2022-11-14T09:09:52;21.10;;;9.13;;
22480;SDS011;11407;56.964;-2.212;2022-11-14T09:12:18;16.43;;;8.40;;
22480;SDS011;11407;56.964;-2.212;2022-11-14T09:14:43;17.17;;;8.20;;
22480;SDS011;11407;56.964;-2.212;2022-11-14T09:17:09;14.40;;;7.83;;
22480;SDS011;11407;56.964;-2.212;2022-11-14T09:19:34;15.10;;;7.57;;
22480;SDS011;11407;56.964;-2.212;2022-11-14T09:22:00;13.90;;;7.63;;
22480;SDS011;11407;56.964;-2.212;2022-11-14T09:24:25;19.33;;;9.20;;
22480;SDS011;11407;56.964;-2.212;2022-11-14T09:26:51;17.83;;;9.13;;
22480;SDS011;11407;56.964;-2.212;2022-11-14T09:29:17;17.13;;;8.43;;
22480;SDS011;11407;56.964;-2.212;2022-11-14T09:31:43;18.83;;;9.20;;
22480;SDS011;11407;56.964;-2.212;2022-11-14T09:34:09;17.33;;;8.47;;
22480;SDS011;11407;56.964;-2.212;2022-11-14T09:36:34;17.57;;;9.10;;
22480;SDS011;11407;56.964;-2.212;2022-11-14T09:39:00;20.73;;;9.70;;
22480;SDS011;11407;56.964;-2.212;2022-11-14T09:41:26;20.60;;;9.90;;
22480;SDS011;11407;56.964;-2.212;2022-11-14T09:46:52;16.87;;;8.67;;
22480;SDS011;11407;56.964;-2.212;2022-11-14T09:49:37;19.20;;;9.40;;
22480;SDS011;11407;56.964;-2.212;2022-11-14T09:54:42;18.70;;;8.63;;
22480;SDS011;11407;56.964;-2.212;2022-11-14T09:57:15;15.73;;;7.90;;
22480;SDS011;11407;56.964;-2.212;2022-11-14T09:59:42;14.10;;;8.33;;
22480;SDS011;11407;56.964;-2.212;2022-11-14T10:08:19;18.80;;;8.70;;
22480;SDS011;11407;56.964;-2.212;2022-11-14T10:11:07;17.90;;;9.30;;
22480;SDS011;11407;56.964;-2.212;2022-11-14T10:19:29;16.73;;;9.53;;
22480;SDS011;11407;56.964;-2.212;2022-11-14T10:22:32;22.03;;;10.17;;
22480;SDS011;11407;56.964;-2.212;2022-11-14T10:25:20;23.33;;;9.17;;
22480;SDS011;11407;56.964;-2.212;2022-11-14T10:28:16;19.77;;;9.23;;
22480;SDS011;11407;56.964;-2.212;2022-11-14T10:30:57;18.90;;;8.90;;
22480;SDS011;11407;56.964;-2.212;2022-11-14T10:36:22;18.80;;;8.10;;
22480;SDS011;11407;56.964;-2.212;2022-11-14T10:41:41;14.10;;;7.63;;
22480;SDS011;11407;56.964;-2.212;2022-11-14T10:44:10;19.20;;;9.03;;
22480;SDS011;11407;56.964;-2.212;2022-11-14T10:46:46;22.53;;;8.67;;
22480;SDS011;11407;56.964;-2.212;2022-11-14T10:49:16;24.80;;;9.17;;
22480;SDS011;11407;56.964;-2.212;2022-11-14T10:54:35;17.30;;;8.77;;
22480;SDS011;11407;56.964;-2.212;2022-11-14T10:57:18;18.97;;;8.80;;
22480;SDS011;11407;56.964;-2.212;2022-11-14T10:59:45;17.77;;;8.60;;
22480;SDS011;11407;56.964;-2.212;2022-11-14T11:02:11;17.97;;;8.90;;
22480;SDS011;11407;56.964;-2.212;2022-11-14T11:04:38;19.73;;;9.17;;
22480;SDS011;11407;56.964;-2.212;2022-11-14T11:09:30;21.77;;;10.30;;
22480;SDS011;11407;56.964;-2.212;2022-11-14T11:12:18;21.03;;;9.77;;
22480;SDS011;11407;56.964;-2.212;2022-11-14T11:14:47;19.33;;;10.50;;
22480;SDS011;11407;56.964;-2.212;2022-11-14T11:17:32;19.90;;;10.10;;
22480;SDS011;11407;56.964;-2.212;2022-11-14T11:20:19;19.90;;;10.03;;
22480;SDS011;11407;56.964;-2.212;2022-11-14T11:22:45;20.10;;;9.60;;
22480;SDS011;11407;56.964;-2.212;2022-11-14T11:25:21;22.80;;;10.70;;
22480;SDS011;11407;56.964;-2.212;2022-11-14T11:27:47;18.97;;;10.30;;
22480;SDS011;11407;56.964;-2.212;2022-11-14T11:30:28;20.83;;;11.77;;
22480;SDS011;11407;56.964;-2.212;2022-11-14T11:32:54;21.43;;;11.87;;
22480;SDS011;11407;56.964;-2.212;2022-11-14T11:35:19;24.67;;;12.33;;
22480;SDS011;11407;56.964;-2.212;2022-11-14T11:37:48;22.90;;;11.70;;
22480;SDS011;11407;56.964;-2.212;2022-11-14T11:40:22;22.40;;;11.90;;
22480;SDS011;11407;56.964;-2.212;2022-11-14T11:45:21;22.20;;;11.87;;
22480;SDS011;11407;56.964;-2.212;2022-11-14T11:47:50;23.23;;;11.43;;
22480;SDS011;11407;56.964;-2.212;2022-11-14T11:50:20;21.50;;;11.47;;
22480;SDS011;11407;56.964;-2.212;2022-11-14T11:53:04;24.33;;;11.57;;
22480;SDS011;11407;56.964;-2.212;2022-11-14T11:55:45;19.90;;;11.03;;
22480;SDS011;11407;56.964;-2.212;2022-11-14T12:00:46;22.93;;;11.30;;
22480;SDS011;11407;56.964;-2.212;2022-11-14T12:03:16;21.97;;;11.60;;
22480;SDS011;11407;56.964;-2.212;2022-11-14T12:11:38;20.47;;;11.83;;
22480;SDS011;11407;56.964;-2.212;2022-11-14T12:30:49;18.93;;;12.27;;
22480;SDS011;11407;56.964;-2.212;2022-11-14T12:33:22;22.40;;;12.30;;
22480;SDS011;11407;56.964;-2.212;2022-11-14T12:35:55;21.93;;;12.50;;
22480;SDS011;11407;56.964;-2.212;2022-11-14T12:38:28;23.83;;;13.00;;
22480;SDS011;11407;56.964;-2.212;2022-11-14T12:40:59;31.03;;;13.97;;
22480;SDS011;11407;56.964;-2.212;2022-11-14T12:43:59;29.50;;;13.93;;
22480;SDS011;11407;56.964;-2.212;2022-11-14T12:55:51;22.53;;;13.00;;
22480;SDS011;11407;56.964;-2.212;2022-11-14T13:00:30;27.37;;;13.90;;
22480;SDS011;11407;56.964;-2.212;2022-11-14T13:03:04;24.30;;;13.77;;
22480;SDS011;11407;56.964;-2.212;2022-11-14T13:05:54;27.70;;;13.83;;
22480;SDS011;11407;56.964;-2.212;2022-11-14T13:08:43;22.97;;;13.40;;
22480;SDS011;11407;56.964;-2.212;2022-11-14T13:14:18;26.93;;;15.30;;
22480;SDS011;11407;56.964;-2.212;2022-11-14T13:17:10;29.53;;;15.13;;
22480;SDS011;11407;56.964;-2.212;2022-11-14T13:20:21;32.63;;;15.57;;
22480;SDS011;11407;56.964;-2.212;2022-11-14T13:33:57;19.93;;;12.27;;
22480;SDS011;11407;56.964;-2.212;2022-11-14T13:36:45;19.90;;;12.87;;
22480;SDS011;11407;56.964;-2.212;2022-11-14T13:39:21;21.93;;;12.00;;
22480;SDS011;11407;56.964;-2.212;2022-11-14T13:42:19;22.23;;;13.23;;
22480;SDS011;11407;56.964;-2.212;2022-11-14T13:50:35;27.63;;;13.83;;
22480;SDS011;11407;56.964;-2.212;2022-11-14T13:53:14;24.83;;;12.37;;
22480;SDS011;11407;56.964;-2.212;2022-11-14T13:55:50;21.57;;;13.07;;
22480;SDS011;11407;56.964;-2.212;2022-11-14T13:58:29;28.27;;;13.00;;
22480;SDS011;11407;56.964;-2.212;2022-11-14T14:06:33;25.10;;;13.87;;
22480;SDS011;11407;56.964;-2.212;2022-11-14T14:12:53;26.37;;;13.53;;
22480;SDS011;11407;56.964;-2.212;2022-11-14T14:21:09;23.50;;;13.27;;
22480;SDS011;11407;56.964;-2.212;2022-11-14T14:23:52;32.80;;;17.10;;
22480;SDS011;11407;56.964;-2.212;2022-11-14T14:29:26;29.00;;;16.30;;
22480;SDS011;11407;56.964;-2.212;2022-11-14T14:32:34;28.27;;;15.77;;
22480;SDS011;11407;56.964;-2.212;2022-11-14T14:34:52;37.83;;;17.97;;
22480;SDS011;11407;56.964;-2.212;2022-11-14T14:37:24;26.13;;;15.53;;
22480;SDS011;11407;56.964;-2.212;2022-11-14T14:39:55;33.07;;;16.70;;
22480;SDS011;11407;56.964;-2.212;2022-11-14T14:42:26;27.93;;;15.30;;
22480;SDS011;11407;56.964;-2.212;2022-11-14T14:44:54;31.47;;;16.30;;
22480;SDS011;11407;56.964;-2.212;2022-11-14T14:49:53;32.60;;;18.53;;
22480;SDS011;11407;56.964;-2.212;2022-11-14T14:55:00;31.60;;;17.93;;
22480;SDS011;11407;56.964;-2.212;2022-11-14T14:57:27;34.33;;;18.73;;
22480;SDS011;11407;56.964;-2.212;2022-11-14T15:00:02;34.53;;;19.20;;
22480;SDS011;11407;56.964;-2.212;2022-11-14T15:02:31;30.37;;;16.60;;
22480;SDS011;11407;56.964;-2.212;2022-11-14T15:04:56;27.63;;;16.30;;
22480;SDS011;11407;56.964;-2.212;2022-11-14T15:07:24;29.83;;;16.53;;
22480;SDS011;11407;56.964;-2.212;2022-11-14T15:09:53;27.60;;;14.60;;
22480;SDS011;11407;56.964;-2.212;2022-11-14T15:12:21;27.10;;;14.73;;
22480;SDS011;11407;56.964;-2.212;2022-11-14T15:14:49;27.00;;;14.43;;
22480;SDS011;11407;56.964;-2.212;2022-11-14T15:17:17;24.03;;;12.53;;
22480;SDS011;11407;56.964;-2.212;2022-11-14T15:19:43;29.00;;;13.37;;
22480;SDS011;11407;56.964;-2.212;2022-11-14T15:24:38;27.00;;;12.10;;
22480;SDS011;11407;56.964;-2.212;2022-11-14T15:27:05;20.87;;;12.47;;
22480;SDS011;11407;56.964;-2.212;2022-11-14T15:29:43;23.27;;;11.67;;
22480;SDS011;11407;56.964;-2.212;2022-11-14T15:32:15;27.73;;;11.47;;
22480;SDS011;11407;56.964;-2.212;2022-11-14T15:34:56;25.03;;;12.03;;
22480;SDS011;11407;56.964;-2.212;2022-11-14T15:40:37;24.63;;;12.00;;
22480;SDS011;11407;56.964;-2.212;2022-11-14T15:46:03;27.57;;;11.43;;
22480;SDS011;11407;56.964;-2.212;2022-11-14T15:48:29;22.70;;;9.97;;
22480;SDS011;11407;56.964;-2.212;2022-11-14T15:50:55;25.23;;;10.27;;
22480;SDS011;11407;56.964;-2.212;2022-11-14T15:53:21;19.70;;;8.90;;
22480;SDS011;11407;56.964;-2.212;2022-11-14T15:55:48;20.23;;;9.33;;
22480;SDS011;11407;56.964;-2.212;2022-11-14T15:58:14;23.77;;;10.87;;
22480;SDS011;11407;56.964;-2.212;2022-11-14T16:00:42;21.23;;;9.17;;
22480;SDS011;11407;56.964;-2.212;2022-11-14T16:03:10;23.33;;;9.27;;
22480;SDS011;11407;56.964;-2.212;2022-11-14T16:05:39;20.87;;;8.87;;
22480;SDS011;11407;56.964;-2.212;2022-11-14T16:08:05;16.23;;;8.03;;
22480;SDS011;11407;56.964;-2.212;2022-11-14T16:10:30;20.20;;;9.37;;
22480;SDS011;11407;56.964;-2.212;2022-11-14T16:12:56;16.73;;;8.47;;
22480;SDS011;11407;56.964;-2.212;2022-11-14T16:15:21;24.10;;;8.17;;
22480;SDS011;11407;56.964;-2.212;2022-11-14T16:17:47;24.50;;;8.50;;
22480;SDS011;11407;56.964;-2.212;2022-11-14T16:22:44;14.30;;;7.80;;
22480;SDS011;11407;56.964;-2.212;2022-11-14T16:25:19;18.97;;;8.17;;
22480;SDS011;11407;56.964;-2.212;2022-11-14T16:27:47;19.70;;;9.00;;